createdAt,value
2018-10-17T00:01:39.304Z,7.40
2018-10-17T00:04:08.637Z,7.40
2018-10-17T00:06:37.956Z,7.20
2018-10-17T00:09:10.161Z,7.10
2018-10-17T00:11:39.741Z,7.00
2018-10-17T00:14:09.325Z,6.90
2018-10-17T00:16:38.941Z,6.90
2018-10-17T00:19:08.753Z,6.90
2018-10-17T00:21:38.383Z,6.90
2018-10-17T00:24:07.993Z,6.80
2018-10-17T00:26:37.644Z,6.80
2018-10-17T00:29:07.335Z,6.80
2018-10-17T00:31:42.789Z,6.70
2018-10-17T00:34:12.440Z,6.80
2018-10-17T00:36:42.041Z,6.80
2018-10-17T00:39:12.153Z,6.70
2018-10-17T00:41:42.052Z,6.70
2018-10-17T00:44:11.354Z,6.70
2018-10-17T00:46:40.707Z,6.70
2018-10-17T00:49:10.056Z,6.70
2018-10-17T00:51:39.413Z,6.80
2018-10-17T00:54:08.719Z,6.80
2018-10-17T00:56:38.012Z,6.80
2018-10-17T00:59:12.701Z,6.80
2018-10-17T01:01:41.951Z,6.80
2018-10-17T01:04:11.559Z,6.70
2018-10-17T01:06:41.268Z,6.70
2018-10-17T01:09:15.484Z,6.60
2018-10-17T01:11:44.874Z,6.60
2018-10-17T01:14:14.160Z,6.60
2018-10-17T01:16:43.476Z,6.60
2018-10-17T01:19:12.889Z,6.70
2018-10-17T01:21:42.220Z,6.70
2018-10-17T01:24:11.530Z,6.80
2018-10-17T01:26:41.144Z,6.80
2018-10-17T01:29:10.593Z,6.90
2018-10-17T01:31:39.884Z,6.90
2018-10-17T01:34:09.276Z,6.80
2018-10-17T01:36:38.593Z,6.80
2018-10-17T01:39:10.336Z,6.80
2018-10-17T01:41:39.645Z,6.80
2018-10-17T01:44:09.467Z,6.70
2018-10-17T01:46:38.792Z,6.70
2018-10-17T01:49:08.112Z,6.60
2018-10-17T01:51:37.400Z,6.50
2018-10-17T01:54:06.804Z,6.50
2018-10-17T01:56:36.096Z,6.40
2018-10-17T01:59:06.046Z,6.40
2018-10-17T02:01:35.583Z,6.50
2018-10-17T02:04:05.052Z,6.50
2018-10-17T02:06:38.108Z,6.30
2018-10-17T02:09:09.568Z,6.20
2018-10-17T02:11:39.220Z,6.10
2018-10-17T02:14:08.988Z,6.00
2018-10-17T02:16:38.502Z,6.00
2018-10-17T02:19:07.844Z,5.90
2018-10-17T02:21:37.133Z,5.80
2018-10-17T02:24:07.580Z,5.70
2018-10-17T02:26:36.904Z,5.70
2018-10-17T02:29:06.855Z,5.70
2018-10-17T02:31:41.637Z,5.80
2018-10-17T02:34:11.996Z,5.90
2018-10-17T02:36:42.372Z,6.10
2018-10-17T02:39:12.249Z,6.20
2018-10-17T02:41:46.268Z,6.30
2018-10-17T02:44:15.541Z,6.30
2018-10-17T02:46:44.880Z,6.30
2018-10-17T02:49:14.320Z,6.30
2018-10-17T02:51:43.620Z,6.30
2018-10-17T02:54:12.917Z,6.40
2018-10-17T02:56:42.257Z,6.30
2018-10-17T02:59:11.661Z,6.30
2018-10-17T03:01:40.851Z,6.20
2018-10-17T03:04:10.174Z,6.10
2018-10-17T03:06:39.470Z,6.10
2018-10-17T03:09:09.859Z,6.10
2018-10-17T03:11:39.501Z,6.10
2018-10-17T03:14:08.792Z,6.20
2018-10-17T03:16:38.501Z,6.10
2018-10-17T03:19:07.917Z,6.00
2018-10-17T03:21:37.185Z,6.00
2018-10-17T03:24:06.940Z,6.00
2018-10-17T03:26:36.259Z,6.00
2018-10-17T03:29:05.891Z,6.00
2018-10-17T03:31:35.136Z,6.10
2018-10-17T03:34:04.572Z,6.10
2018-10-17T03:36:33.941Z,6.10
2018-10-17T03:39:03.265Z,6.00
2018-10-17T03:41:32.638Z,6.00
2018-10-17T03:44:01.965Z,6.10
2018-10-17T03:46:31.446Z,6.00
2018-10-17T03:49:00.801Z,5.90
2018-10-17T03:51:30.117Z,5.90
2018-10-17T03:53:59.864Z,5.80
2018-10-17T03:56:29.482Z,5.80
2018-10-17T03:58:58.821Z,5.90
2018-10-17T04:01:28.228Z,5.90
2018-10-17T04:03:57.920Z,6.10
2018-10-17T04:06:27.242Z,6.20
2018-10-17T04:08:56.531Z,6.20
2018-10-17T04:11:26.337Z,6.00
2018-10-17T04:13:55.678Z,6.00
2018-10-17T04:16:25.044Z,5.90
2018-10-17T04:18:54.405Z,5.80
2018-10-17T04:21:23.909Z,5.60
2018-10-17T04:23:53.257Z,5.50
2018-10-17T04:26:22.675Z,5.50
2018-10-17T04:28:52.224Z,5.50
2018-10-17T04:31:21.660Z,5.50
2018-10-17T04:33:51.092Z,5.50
2018-10-17T04:36:20.628Z,5.60
2018-10-17T04:38:50.089Z,5.80
2018-10-17T04:41:19.562Z,5.80
2018-10-17T04:43:48.842Z,5.70
2018-10-17T04:46:18.237Z,5.80
2018-10-17T04:48:47.686Z,5.80
2018-10-17T04:51:17.064Z,5.80
2018-10-17T04:53:47.078Z,5.80
2018-10-17T04:56:16.836Z,5.80
2018-10-17T04:58:52.695Z,5.70
2018-10-17T05:01:22.185Z,5.70
2018-10-17T05:03:51.833Z,5.80
2018-10-17T05:06:21.153Z,5.90
2018-10-17T05:08:50.823Z,5.90
2018-10-17T05:11:20.228Z,5.80
2018-10-17T05:13:49.548Z,5.80
2018-10-17T05:16:18.929Z,5.80
2018-10-17T05:18:48.214Z,5.90
2018-10-17T05:21:17.519Z,5.80
2018-10-17T05:23:46.821Z,5.80
2018-10-17T05:26:16.107Z,5.90
2018-10-17T05:28:45.410Z,5.90
2018-10-17T05:31:14.871Z,5.80
2018-10-17T05:33:44.120Z,5.70
2018-10-17T05:36:14.525Z,5.60
2018-10-17T05:38:50.226Z,5.50
2018-10-17T05:41:19.533Z,5.40
2018-10-17T05:47:04.693Z,5.20
2018-10-17T05:49:34.009Z,5.20
2018-10-17T05:52:03.321Z,5.20
2018-10-17T05:54:32.620Z,5.30
2018-10-17T05:57:01.966Z,5.50
2018-10-17T05:59:31.270Z,5.60
2018-10-17T06:02:01.759Z,5.60
2018-10-17T06:04:31.101Z,5.70
2018-10-17T06:07:00.627Z,5.70
2018-10-17T06:12:53.823Z,5.80
2018-10-17T06:15:23.160Z,6.00
2018-10-17T06:17:52.581Z,6.20
2018-10-17T06:20:21.977Z,6.40
2018-10-17T06:22:51.470Z,6.60
2018-10-17T06:25:20.765Z,6.80
2018-10-17T06:31:00.787Z,7.50
2018-10-17T06:33:30.141Z,7.80
2018-10-17T06:35:59.446Z,8.00
2018-10-17T06:38:28.733Z,8.20
2018-10-17T06:40:58.328Z,8.60
2018-10-17T06:43:27.860Z,9.30
2018-10-17T06:45:57.353Z,9.70
2018-10-17T06:48:26.717Z,10.10
2018-10-17T06:50:56.034Z,10.20
2018-10-17T06:53:25.357Z,10.40
2018-10-17T06:55:54.733Z,10.50
2018-10-17T06:58:24.030Z,10.70
2018-10-17T07:00:53.420Z,10.90
2018-10-17T07:03:22.717Z,11.50
2018-10-17T07:05:52.168Z,12.00
2018-10-17T07:08:21.487Z,12.40
2018-10-17T07:10:51.168Z,12.30
2018-10-17T07:13:20.720Z,12.30
2018-10-17T07:15:50.071Z,13.10
2018-10-17T07:18:19.557Z,13.90
2018-10-17T07:20:48.973Z,14.40
2018-10-17T07:23:18.402Z,15.30
2018-10-17T07:25:47.782Z,15.50
2018-10-17T07:28:17.122Z,16.00
2018-10-17T07:30:46.426Z,16.40
2018-10-17T07:33:15.776Z,16.20
2018-10-17T07:35:45.228Z,16.50
2018-10-17T07:38:14.472Z,16.20
2018-10-17T07:40:43.941Z,16.20
2018-10-17T07:43:13.267Z,15.30
2018-10-17T07:45:42.859Z,14.10
2018-10-17T07:48:12.150Z,14.00
2018-10-17T07:50:41.421Z,14.10
2018-10-17T07:53:10.832Z,14.20
2018-10-17T07:55:40.278Z,14.10
2018-10-17T07:58:09.628Z,13.80
2018-10-17T08:00:38.936Z,13.70
2018-10-17T08:03:08.266Z,13.70
2018-10-17T08:05:37.637Z,14.00
2018-10-17T08:08:07.429Z,14.50
2018-10-17T08:10:36.869Z,14.50
2018-10-17T08:13:06.697Z,14.30
2018-10-17T08:15:36.086Z,14.30
2018-10-17T08:18:05.853Z,14.60
2018-10-17T08:20:35.231Z,15.30
2018-10-17T08:23:05.383Z,15.70
2018-10-17T08:25:35.374Z,16.00
2018-10-17T08:28:04.745Z,15.80
2018-10-17T08:30:34.046Z,15.60
2018-10-17T08:33:04.051Z,15.50
2018-10-17T08:35:33.416Z,16.20
2018-10-17T08:38:02.850Z,16.70
2018-10-17T08:40:32.201Z,17.40
2018-10-17T08:43:01.522Z,17.40
2018-10-17T08:45:30.878Z,17.00
2018-10-17T08:48:00.236Z,17.20
2018-10-17T08:50:29.650Z,17.80
2018-10-17T08:52:59.059Z,17.20
2018-10-17T08:55:28.502Z,16.90
2018-10-17T08:57:59.034Z,16.50
2018-10-17T09:00:28.959Z,17.00
2018-10-17T09:02:58.522Z,17.20
2018-10-17T09:05:28.488Z,17.90
2018-10-17T09:07:58.225Z,17.20
2018-10-17T09:10:27.854Z,17.30
2018-10-17T09:12:57.554Z,17.60
2018-10-17T09:15:27.250Z,17.60
2018-10-17T09:17:57.024Z,17.80
2018-10-17T09:20:26.775Z,18.60
2018-10-17T09:22:56.218Z,19.20
2018-10-17T09:25:25.905Z,20.00
2018-10-17T09:27:55.637Z,19.70
2018-10-17T09:30:25.254Z,20.00
2018-10-17T09:32:54.792Z,20.10
2018-10-17T09:35:24.566Z,19.50
2018-10-17T09:37:54.129Z,19.70
2018-10-17T09:40:23.762Z,19.90
2018-10-17T09:42:53.483Z,20.20
2018-10-17T09:45:23.117Z,20.80
2018-10-17T09:47:52.838Z,20.60
2018-10-17T09:50:22.451Z,20.50
2018-10-17T09:52:52.263Z,20.10
2018-10-17T09:55:21.898Z,20.70
2018-10-17T09:57:51.549Z,20.70
2018-10-17T10:00:26.487Z,21.00
2018-10-17T10:02:56.198Z,21.30
2018-10-17T10:05:25.818Z,21.20
2018-10-17T10:07:55.517Z,21.30
2018-10-17T10:10:25.202Z,22.00
2018-10-17T10:12:54.885Z,22.30
2018-10-17T10:15:24.527Z,22.10
2018-10-17T10:17:54.151Z,22.10
2018-10-17T10:20:23.849Z,22.30
2018-10-17T10:22:53.568Z,22.50
2018-10-17T10:25:23.374Z,23.10
2018-10-17T10:27:53.044Z,23.20
2018-10-17T10:30:22.635Z,23.40
2018-10-17T10:32:52.438Z,23.60
2018-10-17T10:35:22.047Z,23.60
2018-10-17T10:37:51.748Z,23.50
2018-10-17T10:40:21.352Z,23.90
2018-10-17T10:42:51.019Z,24.20
2018-10-17T10:45:20.955Z,22.70
2018-10-17T10:47:50.487Z,23.00
2018-10-17T10:50:20.179Z,23.10
2018-10-17T10:52:49.946Z,23.80
2018-10-17T10:55:19.450Z,23.60
2018-10-17T10:57:49.112Z,22.90
2018-10-17T11:00:18.835Z,23.10
2018-10-17T11:02:48.410Z,22.90
2018-10-17T11:05:18.042Z,23.50
2018-10-17T11:07:47.699Z,23.50
2018-10-17T11:10:17.286Z,23.20
2018-10-17T11:12:46.983Z,23.30
2018-10-17T11:15:16.531Z,23.50
2018-10-17T11:17:46.191Z,23.50
2018-10-17T11:20:15.841Z,23.80
2018-10-17T11:22:45.483Z,24.10
2018-10-17T11:25:15.168Z,23.80
2018-10-17T11:27:45.247Z,23.50
2018-10-17T11:30:15.170Z,24.10
2018-10-17T11:32:44.861Z,24.20
2018-10-17T11:35:14.533Z,24.10
2018-10-17T11:37:44.150Z,23.80
2018-10-17T11:40:13.833Z,24.60
2018-10-17T11:42:43.482Z,24.80
2018-10-17T11:45:13.171Z,24.60
2018-10-17T11:47:42.801Z,24.40
2018-10-17T11:50:12.535Z,24.60
2018-10-17T11:52:42.136Z,24.20
2018-10-17T11:55:11.773Z,24.70
2018-10-17T11:57:41.362Z,24.70
2018-10-17T12:00:13.130Z,24.70
2018-10-17T12:02:42.793Z,25.00
2018-10-17T12:05:14.511Z,25.60
2018-10-17T12:07:44.267Z,26.30
2018-10-17T12:10:13.862Z,26.60
2018-10-17T12:12:43.521Z,27.00
2018-10-17T12:15:14.978Z,27.20
2018-10-17T12:17:44.475Z,26.50
2018-10-17T12:20:15.210Z,26.90
2018-10-17T12:22:45.724Z,26.80
2018-10-17T12:25:15.798Z,27.10
2018-10-17T12:27:45.455Z,26.40
2018-10-17T12:30:15.911Z,26.60
2018-10-17T12:32:45.418Z,26.70
2018-10-17T12:35:15.177Z,27.20
2018-10-17T12:37:44.758Z,27.20
2018-10-17T12:40:14.367Z,27.50
2018-10-17T12:42:43.943Z,27.60
2018-10-17T12:45:13.583Z,27.70
2018-10-17T12:47:43.310Z,27.60
2018-10-17T12:50:13.021Z,27.90
2018-10-17T12:52:42.678Z,27.80
2018-10-17T12:55:12.208Z,28.00
2018-10-17T12:57:41.824Z,27.70
2018-10-17T13:00:11.698Z,28.00
2018-10-17T13:02:41.327Z,27.70
2018-10-17T13:05:11.697Z,28.00
2018-10-17T13:07:41.272Z,28.20
2018-10-17T13:13:19.346Z,27.80
2018-10-17T13:15:48.954Z,27.60
2018-10-17T13:18:18.571Z,27.70
2018-10-17T13:20:49.041Z,28.20
2018-10-17T13:23:18.828Z,28.60
2018-10-17T13:25:48.324Z,28.40
2018-10-17T13:28:17.987Z,28.00
2018-10-17T13:30:47.563Z,28.20
2018-10-17T13:33:17.265Z,28.50
2018-10-17T13:35:46.900Z,28.40
2018-10-17T13:38:25.980Z,29.00
2018-10-17T13:40:55.612Z,28.10
2018-10-17T13:43:25.223Z,28.70
2018-10-17T13:45:54.837Z,29.10
2018-10-17T13:48:24.438Z,29.30
2018-10-17T13:50:54.000Z,29.20
2018-10-17T13:53:23.678Z,29.20
2018-10-17T13:55:53.254Z,28.40
2018-10-17T13:58:30.271Z,28.40
2018-10-17T14:01:00.010Z,28.30
2018-10-17T14:03:29.458Z,27.60
2018-10-17T14:05:59.079Z,27.60
2018-10-17T14:08:28.675Z,27.50
2018-10-17T14:10:58.382Z,27.30
2018-10-17T14:13:28.106Z,27.00
2018-10-17T14:15:57.763Z,26.60
2018-10-17T14:18:32.068Z,26.20
2018-10-17T14:21:02.830Z,25.60
2018-10-17T14:23:32.546Z,25.70
2018-10-17T14:26:02.086Z,25.90
2018-10-17T14:28:31.678Z,25.20
2018-10-17T14:31:03.341Z,24.00
2018-10-17T14:33:32.959Z,23.50
2018-10-17T14:36:02.487Z,22.70
2018-10-17T14:38:32.148Z,22.10
2018-10-17T14:41:01.794Z,21.70
2018-10-17T14:43:31.479Z,21.50
2018-10-17T14:46:01.072Z,21.50
2018-10-17T14:48:42.611Z,21.60
2018-10-17T14:51:13.546Z,21.60
2018-10-17T14:53:50.191Z,21.50
2018-10-17T14:56:20.692Z,21.50
2018-10-17T14:58:50.321Z,21.60
2018-10-17T15:01:37.129Z,21.60
2018-10-17T15:04:07.145Z,21.50
2018-10-17T15:06:37.981Z,21.50
2018-10-17T15:09:09.424Z,21.50
2018-10-17T15:11:40.165Z,22.00
2018-10-17T15:14:14.147Z,22.30
2018-10-17T15:16:43.837Z,22.50
2018-10-17T15:19:13.301Z,22.70
2018-10-17T15:21:44.265Z,22.90
2018-10-17T15:24:13.672Z,22.80
2018-10-17T15:26:43.781Z,22.60
2018-10-17T15:29:18.736Z,22.40
2018-10-17T15:31:48.477Z,22.30
2018-10-17T15:34:19.207Z,22.20
2018-10-17T15:36:48.939Z,22.10
2018-10-17T15:39:18.646Z,22.20
2018-10-17T15:41:48.495Z,22.40
2018-10-17T15:44:30.958Z,22.70
2018-10-17T15:47:00.589Z,22.90
2018-10-17T15:49:30.990Z,23.40
2018-10-17T15:52:01.055Z,23.00
2018-10-17T15:54:30.622Z,22.90
2018-10-17T15:57:00.269Z,22.70
2018-10-17T15:59:30.961Z,22.40
2018-10-17T16:02:06.666Z,22.20
2018-10-17T16:04:36.368Z,21.90
2018-10-17T16:07:06.509Z,21.50
2018-10-17T16:09:37.255Z,20.90
2018-10-17T16:12:07.107Z,20.20
2018-10-17T16:14:36.737Z,19.60
2018-10-17T16:17:06.486Z,19.10
2018-10-17T16:19:36.363Z,18.70
2018-10-17T16:22:06.835Z,18.20
2018-10-17T16:24:36.807Z,17.80
2018-10-17T16:27:06.899Z,17.50
2018-10-17T16:29:36.582Z,17.10
2018-10-17T16:32:06.803Z,16.80
2018-10-17T16:34:36.360Z,16.50
2018-10-17T16:37:06.795Z,16.20
2018-10-17T16:39:36.483Z,15.90
2018-10-17T16:42:07.043Z,15.70
2018-10-17T16:44:36.635Z,15.60
2018-10-17T16:47:06.625Z,15.40
2018-10-17T16:49:36.315Z,15.30
2018-10-17T16:52:06.943Z,15.10
2018-10-17T16:54:37.038Z,15.00
2018-10-17T16:57:08.552Z,14.90
2018-10-17T16:59:38.735Z,14.80
2018-10-17T17:02:09.571Z,14.70
2018-10-17T17:04:39.257Z,14.70
2018-10-17T17:07:09.019Z,14.60
2018-10-17T17:09:38.735Z,14.60
2018-10-17T17:12:08.541Z,14.50
2018-10-17T17:14:38.212Z,14.50
2018-10-17T17:17:08.120Z,14.40
2018-10-17T17:19:37.980Z,14.50
2018-10-17T17:22:07.753Z,14.40
2018-10-17T17:24:43.043Z,14.20
2018-10-17T17:27:12.772Z,14.10
2018-10-17T17:29:42.389Z,13.90
2018-10-17T17:32:11.987Z,13.70
2018-10-17T17:34:41.696Z,13.60
2018-10-17T17:37:11.388Z,13.50
2018-10-17T17:39:41.115Z,13.40
2018-10-17T17:42:10.864Z,13.30
2018-10-17T17:44:40.594Z,13.20
2018-10-17T17:47:10.307Z,13.10
2018-10-17T17:49:39.902Z,13.10
2018-10-17T17:52:11.094Z,13.10
2018-10-17T17:54:41.369Z,13.00
2018-10-17T17:57:13.142Z,13.00
2018-10-17T17:59:48.953Z,12.90
2018-10-17T18:02:25.095Z,12.90
2018-10-17T18:04:59.523Z,12.80
2018-10-17T18:07:42.107Z,12.90
2018-10-17T18:10:15.286Z,12.80
2018-10-17T18:12:45.109Z,12.70
2018-10-17T18:15:15.262Z,12.60
2018-10-17T18:17:59.259Z,12.50
2018-10-17T18:20:28.948Z,12.40
2018-10-17T18:23:17.071Z,12.40
2018-10-17T18:25:47.046Z,12.40
2018-10-17T18:28:17.331Z,12.30
2018-10-17T18:30:53.226Z,12.30
2018-10-17T18:33:23.070Z,12.20
2018-10-17T18:36:03.685Z,12.10
2018-10-17T18:38:43.016Z,12.00
2018-10-17T18:41:25.392Z,11.90
2018-10-17T18:43:55.355Z,11.90
2018-10-17T18:46:25.655Z,11.90
2018-10-17T18:48:55.562Z,11.80
2018-10-17T18:51:25.186Z,11.80
2018-10-17T18:54:05.379Z,11.70
2018-10-17T18:56:35.244Z,11.70
2018-10-17T19:02:06.742Z,11.80
2018-10-17T19:04:54.936Z,11.80
2018-10-17T19:07:28.391Z,11.70
2018-10-17T19:09:58.327Z,11.70
2018-10-17T19:12:27.955Z,11.60
2018-10-17T19:14:57.714Z,11.50
2018-10-17T19:17:27.487Z,11.50
2018-10-17T19:20:08.713Z,11.40
2018-10-17T19:22:38.510Z,11.50
2018-10-17T19:25:08.763Z,11.50
2018-10-17T19:27:38.936Z,11.40
2018-10-17T19:30:10.313Z,11.40
2018-10-17T19:32:40.216Z,11.40
2018-10-17T19:35:10.016Z,11.30
2018-10-17T19:37:39.744Z,11.30
2018-10-17T19:40:12.066Z,11.30
2018-10-17T19:42:51.670Z,11.30
2018-10-17T19:45:21.263Z,11.30
2018-10-17T19:47:51.075Z,11.20
2018-10-17T19:50:21.043Z,11.20
2018-10-17T19:52:51.495Z,11.10
2018-10-17T19:55:21.366Z,11.10
2018-10-17T19:57:55.533Z,11.00
2018-10-17T20:00:25.545Z,11.00
2018-10-17T20:02:55.466Z,10.90
2018-10-17T20:05:25.479Z,10.80
2018-10-17T20:07:55.112Z,10.80
2018-10-17T20:10:25.107Z,10.70
2018-10-17T20:12:54.723Z,10.70
2018-10-17T20:15:24.564Z,10.60
2018-10-17T20:18:05.666Z,10.60
2018-10-17T20:20:41.458Z,10.60
2018-10-17T20:23:11.740Z,10.60
2018-10-17T20:25:41.569Z,10.50
2018-10-17T20:28:11.308Z,10.50
2018-10-17T20:30:41.031Z,10.50
2018-10-17T20:33:10.657Z,10.40
2018-10-17T20:35:40.263Z,10.30
2018-10-17T20:38:09.978Z,10.30
2018-10-17T20:40:39.725Z,10.30
2018-10-17T20:43:09.466Z,10.40
2018-10-17T20:45:41.170Z,10.40
2018-10-17T20:48:10.839Z,10.40
2018-10-17T20:50:40.548Z,10.40
2018-10-17T20:53:14.317Z,10.30
2018-10-17T20:55:44.083Z,10.20
2018-10-17T20:58:13.905Z,10.20
2018-10-17T21:00:43.583Z,10.20
2018-10-17T21:03:13.166Z,10.10
2018-10-17T21:05:42.932Z,10.10
2018-10-17T21:08:12.741Z,10.10
2018-10-17T21:10:48.255Z,10.00
2018-10-17T21:13:26.085Z,10.00
2018-10-17T21:15:56.138Z,9.90
2018-10-17T21:18:29.449Z,9.90
2018-10-17T21:21:10.660Z,9.90
2018-10-17T21:23:40.423Z,9.80
2018-10-17T21:26:10.427Z,9.90
2018-10-17T21:28:52.378Z,9.80
2018-10-17T21:31:22.167Z,9.80
2018-10-17T21:33:51.938Z,9.80
2018-10-17T21:36:21.767Z,9.80
2018-10-17T21:38:51.467Z,9.80
2018-10-17T21:41:21.135Z,9.80
2018-10-17T21:43:50.787Z,9.70
2018-10-17T21:46:20.872Z,9.70
2018-10-17T21:48:50.559Z,9.60
2018-10-17T21:51:29.665Z,9.60
2018-10-17T21:53:59.478Z,9.60
2018-10-17T21:56:29.074Z,9.60
2018-10-17T21:58:58.661Z,9.60
2018-10-17T22:01:28.273Z,9.70
2018-10-17T22:03:57.926Z,9.50
2018-10-17T22:06:27.503Z,9.30
2018-10-17T22:08:57.372Z,9.20
2018-10-17T22:11:27.078Z,9.10
2018-10-17T22:13:56.677Z,9.10
2018-10-17T22:16:31.577Z,9.10
2018-10-17T22:22:02.827Z,9.10
2018-10-17T22:24:32.487Z,9.20
2018-10-17T22:27:02.085Z,9.10
2018-10-17T22:29:31.622Z,9.10
2018-10-17T22:32:01.326Z,9.20
2018-10-17T22:34:47.212Z,9.20
2018-10-17T22:37:16.898Z,9.20
2018-10-17T22:39:46.547Z,9.00
2018-10-17T22:42:16.238Z,8.90
2018-10-17T22:44:45.830Z,8.90
2018-10-17T22:47:15.455Z,8.80
2018-10-17T22:49:45.018Z,8.90
2018-10-17T22:52:14.593Z,8.90
2018-10-17T22:54:44.219Z,8.90
2018-10-17T22:57:14.095Z,9.00
2018-10-17T22:59:43.679Z,9.10
2018-10-17T23:02:13.375Z,9.10
2018-10-17T23:04:42.954Z,9.10
2018-10-17T23:07:12.723Z,9.10
2018-10-17T23:09:42.398Z,9.00
2018-10-17T23:12:12.122Z,9.10
2018-10-17T23:14:41.740Z,9.10
2018-10-17T23:17:11.359Z,9.10
2018-10-17T23:19:40.986Z,9.20
2018-10-17T23:22:10.573Z,9.20
2018-10-17T23:24:40.154Z,9.10
2018-10-17T23:27:09.778Z,9.10
2018-10-17T23:29:39.431Z,9.10
2018-10-17T23:32:09.170Z,9.00
2018-10-17T23:34:38.734Z,9.00
2018-10-17T23:37:08.456Z,9.10
2018-10-17T23:39:38.246Z,9.10
2018-10-17T23:42:08.311Z,9.10
2018-10-17T23:44:37.974Z,8.90
2018-10-17T23:47:07.583Z,8.80
2018-10-17T23:49:37.266Z,8.80
2018-10-17T23:52:07.201Z,8.80
2018-10-17T23:54:36.840Z,8.80
2018-10-17T23:57:06.728Z,8.70
2018-10-17T23:59:36.374Z,8.60
